Weather at San German Airport

Public forecast

Using degrees Celsius for public forecast. Weather courtesy of forecast.io.

Closest aviation weather report (METAR) to San German Airport

Closest report is Frank Pais International Airport, 16.2 nm (30.1 km) NW. Retrieved 2021/06/23 21:50 UTC (19 minutes ago):

MUHG 232150Z 08018KT 9000 SCT036 31/22 Q1015

Closest aviation forecast (TAF) to San German Airport

Closest forecast is Frank Pais International Airport, 16.2 nm (30.1 km) NW. Retrieved 2021/06/23 18:03 UTC (4 hours ago):

TAF MUHG 231700Z 2318/2418 08011KT 9000 SCT030 TEMPO 2318/2324 4000 TSRA SCT018CB BKN020 BECMG 2401/2403 07006KT